sensor_id;sensor_type;location;lat;lon;timestamp;P1;durP1;ratioP1;P2;durP2;ratioP2
12482;SDS011;6306;47.134;15.344;2022-12-10T00:01:14;12.00;;;9.07;;
12482;SDS011;6306;47.134;15.344;2022-12-10T00:03:41;16.57;;;7.60;;
12482;SDS011;6306;47.134;15.344;2022-12-10T00:06:08;10.93;;;8.10;;
12482;SDS011;6306;47.134;15.344;2022-12-10T00:08:35;12.37;;;8.60;;
12482;SDS011;6306;47.134;15.344;2022-12-10T00:11:02;10.60;;;7.73;;
12482;SDS011;6306;47.134;15.344;2022-12-10T00:13:29;11.40;;;7.60;;
12482;SDS011;6306;47.134;15.344;2022-12-10T00:15:55;10.03;;;7.63;;
12482;SDS011;6306;47.134;15.344;2022-12-10T00:18:21;11.00;;;8.07;;
12482;SDS011;6306;47.134;15.344;2022-12-10T00:20:47;11.30;;;8.83;;
12482;SDS011;6306;47.134;15.344;2022-12-10T00:23:13;12.53;;;8.50;;
12482;SDS011;6306;47.134;15.344;2022-12-10T00:25:39;11.63;;;8.50;;
12482;SDS011;6306;47.134;15.344;2022-12-10T00:28:05;12.00;;;8.43;;
12482;SDS011;6306;47.134;15.344;2022-12-10T00:30:31;12.30;;;8.23;;
12482;SDS011;6306;47.134;15.344;2022-12-10T00:32:58;14.03;;;8.80;;
12482;SDS011;6306;47.134;15.344;2022-12-10T00:35:24;13.73;;;9.43;;
12482;SDS011;6306;47.134;15.344;2022-12-10T00:37:50;15.10;;;9.60;;
12482;SDS011;6306;47.134;15.344;2022-12-10T00:40:16;10.70;;;8.80;;
12482;SDS011;6306;47.134;15.344;2022-12-10T00:42:42;13.47;;;8.50;;
12482;SDS011;6306;47.134;15.344;2022-12-10T00:45:08;14.10;;;9.20;;
12482;SDS011;6306;47.134;15.344;2022-12-10T00:47:34;19.73;;;10.67;;
12482;SDS011;6306;47.134;15.344;2022-12-10T00:50:00;12.23;;;9.13;;
12482;SDS011;6306;47.134;15.344;2022-12-10T00:52:26;13.33;;;8.57;;
12482;SDS011;6306;47.134;15.344;2022-12-10T00:54:52;12.60;;;8.20;;
12482;SDS011;6306;47.134;15.344;2022-12-10T00:57:18;11.27;;;7.90;;
12482;SDS011;6306;47.134;15.344;2022-12-10T00:59:44;12.13;;;8.63;;
12482;SDS011;6306;47.134;15.344;2022-12-10T01:02:10;11.33;;;7.83;;
12482;SDS011;6306;47.134;15.344;2022-12-10T01:04:36;10.87;;;8.60;;
12482;SDS011;6306;47.134;15.344;2022-12-10T01:07:02;14.07;;;9.40;;
12482;SDS011;6306;47.134;15.344;2022-12-10T01:09:29;12.60;;;8.03;;
12482;SDS011;6306;47.134;15.344;2022-12-10T01:11:56;12.30;;;9.33;;
12482;SDS011;6306;47.134;15.344;2022-12-10T01:14:23;11.57;;;8.10;;
12482;SDS011;6306;47.134;15.344;2022-12-10T01:16:51;13.17;;;7.83;;
12482;SDS011;6306;47.134;15.344;2022-12-10T01:19:18;11.80;;;8.60;;
12482;SDS011;6306;47.134;15.344;2022-12-10T01:21:45;9.93;;;7.63;;
12482;SDS011;6306;47.134;15.344;2022-12-10T01:24:11;10.40;;;7.33;;
12482;SDS011;6306;47.134;15.344;2022-12-10T01:26:37;15.30;;;8.93;;
12482;SDS011;6306;47.134;15.344;2022-12-10T01:29:03;12.60;;;7.50;;
12482;SDS011;6306;47.134;15.344;2022-12-10T01:31:31;12.10;;;7.57;;
12482;SDS011;6306;47.134;15.344;2022-12-10T01:33:57;11.67;;;8.20;;
12482;SDS011;6306;47.134;15.344;2022-12-10T01:36:28;15.90;;;9.97;;
12482;SDS011;6306;47.134;15.344;2022-12-10T01:38:55;11.57;;;8.40;;
12482;SDS011;6306;47.134;15.344;2022-12-10T01:41:25;11.90;;;9.20;;
12482;SDS011;6306;47.134;15.344;2022-12-10T01:43:56;17.80;;;10.87;;
12482;SDS011;6306;47.134;15.344;2022-12-10T01:46:30;10.10;;;8.77;;
12482;SDS011;6306;47.134;15.344;2022-12-10T01:48:56;11.07;;;7.40;;
12482;SDS011;6306;47.134;15.344;2022-12-10T01:51:24;10.53;;;7.27;;
12482;SDS011;6306;47.134;15.344;2022-12-10T01:53:50;10.43;;;8.20;;
12482;SDS011;6306;47.134;15.344;2022-12-10T01:56:17;12.97;;;8.70;;
12482;SDS011;6306;47.134;15.344;2022-12-10T01:58:43;13.93;;;7.50;;
12482;SDS011;6306;47.134;15.344;2022-12-10T02:01:14;8.47;;;6.23;;
12482;SDS011;6306;47.134;15.344;2022-12-10T02:17:19;8.40;;;6.30;;
12482;SDS011;6306;47.134;15.344;2022-12-10T02:20:07;10.40;;;7.30;;
12482;SDS011;6306;47.134;15.344;2022-12-10T02:22:35;9.77;;;6.73;;
12482;SDS011;6306;47.134;15.344;2022-12-10T02:25:04;7.13;;;5.67;;
12482;SDS011;6306;47.134;15.344;2022-12-10T02:27:33;6.43;;;5.83;;
12482;SDS011;6306;47.134;15.344;2022-12-10T02:30:02;9.03;;;6.87;;
12482;SDS011;6306;47.134;15.344;2022-12-10T02:32:35;10.10;;;6.47;;
12482;SDS011;6306;47.134;15.344;2022-12-10T02:35:03;10.67;;;6.73;;
12482;SDS011;6306;47.134;15.344;2022-12-10T02:37:31;10.33;;;7.27;;
12482;SDS011;6306;47.134;15.344;2022-12-10T02:39:59;9.30;;;7.37;;
12482;SDS011;6306;47.134;15.344;2022-12-10T02:42:27;8.60;;;6.50;;
12482;SDS011;6306;47.134;15.344;2022-12-10T02:44:55;7.33;;;6.33;;
12482;SDS011;6306;47.134;15.344;2022-12-10T02:47:21;6.53;;;5.37;;
12482;SDS011;6306;47.134;15.344;2022-12-10T02:49:49;7.60;;;5.50;;
12482;SDS011;6306;47.134;15.344;2022-12-10T02:52:17;7.57;;;6.50;;
12482;SDS011;6306;47.134;15.344;2022-12-10T02:54:44;7.30;;;6.10;;
12482;SDS011;6306;47.134;15.344;2022-12-10T02:57:32;6.80;;;5.53;;
12482;SDS011;6306;47.134;15.344;2022-12-10T03:00:15;6.03;;;5.43;;
12482;SDS011;6306;47.134;15.344;2022-12-10T03:05:36;9.13;;;6.50;;
12482;SDS011;6306;47.134;15.344;2022-12-10T03:08:14;7.97;;;6.17;;
12482;SDS011;6306;47.134;15.344;2022-12-10T03:13:10;8.30;;;6.30;;
12482;SDS011;6306;47.134;15.344;2022-12-10T03:15:39;11.67;;;6.20;;
12482;SDS011;6306;47.134;15.344;2022-12-10T03:18:06;11.50;;;6.40;;
12482;SDS011;6306;47.134;15.344;2022-12-10T03:20:34;9.33;;;7.00;;
12482;SDS011;6306;47.134;15.344;2022-12-10T03:23:01;7.13;;;6.10;;
12482;SDS011;6306;47.134;15.344;2022-12-10T03:25:27;9.90;;;7.53;;
12482;SDS011;6306;47.134;15.344;2022-12-10T03:27:56;8.87;;;6.53;;
12482;SDS011;6306;47.134;15.344;2022-12-10T03:30:23;8.93;;;6.70;;
12482;SDS011;6306;47.134;15.344;2022-12-10T03:32:49;7.93;;;6.77;;
12482;SDS011;6306;47.134;15.344;2022-12-10T03:35:16;8.90;;;6.60;;
12482;SDS011;6306;47.134;15.344;2022-12-10T03:37:42;8.77;;;6.70;;
12482;SDS011;6306;47.134;15.344;2022-12-10T03:40:09;9.80;;;7.37;;
12482;SDS011;6306;47.134;15.344;2022-12-10T03:42:37;8.57;;;6.43;;
12482;SDS011;6306;47.134;15.344;2022-12-10T03:45:03;6.47;;;5.63;;
12482;SDS011;6306;47.134;15.344;2022-12-10T03:47:30;9.20;;;6.50;;
12482;SDS011;6306;47.134;15.344;2022-12-10T03:49:56;11.63;;;6.60;;
12482;SDS011;6306;47.134;15.344;2022-12-10T03:52:22;8.00;;;6.23;;
12482;SDS011;6306;47.134;15.344;2022-12-10T03:54:48;7.27;;;6.17;;
12482;SDS011;6306;47.134;15.344;2022-12-10T03:57:14;14.10;;;8.50;;
12482;SDS011;6306;47.134;15.344;2022-12-10T03:59:40;6.93;;;5.63;;
12482;SDS011;6306;47.134;15.344;2022-12-10T04:02:06;9.30;;;6.40;;
12482;SDS011;6306;47.134;15.344;2022-12-10T04:04:32;6.10;;;5.50;;
12482;SDS011;6306;47.134;15.344;2022-12-10T04:06:58;7.20;;;6.27;;
12482;SDS011;6306;47.134;15.344;2022-12-10T04:09:24;9.60;;;7.30;;
12482;SDS011;6306;47.134;15.344;2022-12-10T04:11:50;9.30;;;6.10;;
12482;SDS011;6306;47.134;15.344;2022-12-10T04:14:20;8.77;;;6.00;;
12482;SDS011;6306;47.134;15.344;2022-12-10T04:17:04;6.73;;;5.83;;
12482;SDS011;6306;47.134;15.344;2022-12-10T04:19:30;7.70;;;5.87;;
12482;SDS011;6306;47.134;15.344;2022-12-10T04:21:56;8.60;;;6.40;;
12482;SDS011;6306;47.134;15.344;2022-12-10T04:24:41;9.07;;;6.00;;
12482;SDS011;6306;47.134;15.344;2022-12-10T04:27:27;7.10;;;5.67;;
12482;SDS011;6306;47.134;15.344;2022-12-10T04:29:54;7.27;;;5.80;;
12482;SDS011;6306;47.134;15.344;2022-12-10T04:32:20;8.90;;;7.10;;
12482;SDS011;6306;47.134;15.344;2022-12-10T04:34:46;7.23;;;6.30;;
12482;SDS011;6306;47.134;15.344;2022-12-10T04:37:13;9.17;;;6.43;;
12482;SDS011;6306;47.134;15.344;2022-12-10T04:39:39;7.97;;;6.20;;
12482;SDS011;6306;47.134;15.344;2022-12-10T04:42:05;8.80;;;7.50;;
12482;SDS011;6306;47.134;15.344;2022-12-10T04:44:32;9.43;;;6.93;;
12482;SDS011;6306;47.134;15.344;2022-12-10T04:46:58;11.10;;;7.93;;
12482;SDS011;6306;47.134;15.344;2022-12-10T04:49:24;9.80;;;7.27;;
12482;SDS011;6306;47.134;15.344;2022-12-10T04:51:50;9.20;;;6.93;;
12482;SDS011;6306;47.134;15.344;2022-12-10T04:54:17;13.70;;;9.13;;
12482;SDS011;6306;47.134;15.344;2022-12-10T04:56:44;14.10;;;8.20;;
12482;SDS011;6306;47.134;15.344;2022-12-10T04:59:10;9.43;;;6.50;;
12482;SDS011;6306;47.134;15.344;2022-12-10T05:01:36;7.80;;;6.00;;
12482;SDS011;6306;47.134;15.344;2022-12-10T05:04:03;11.97;;;7.83;;
12482;SDS011;6306;47.134;15.344;2022-12-10T05:06:29;9.30;;;7.40;;
12482;SDS011;6306;47.134;15.344;2022-12-10T05:08:56;8.73;;;7.10;;
12482;SDS011;6306;47.134;15.344;2022-12-10T05:11:23;9.83;;;7.93;;
12482;SDS011;6306;47.134;15.344;2022-12-10T05:13:49;12.90;;;8.63;;
12482;SDS011;6306;47.134;15.344;2022-12-10T05:16:17;10.07;;;8.17;;
12482;SDS011;6306;47.134;15.344;2022-12-10T05:18:44;7.77;;;5.50;;
12482;SDS011;6306;47.134;15.344;2022-12-10T05:21:11;9.73;;;5.83;;
12482;SDS011;6306;47.134;15.344;2022-12-10T05:23:38;5.70;;;5.10;;
12482;SDS011;6306;47.134;15.344;2022-12-10T05:26:06;5.20;;;4.07;;
12482;SDS011;6306;47.134;15.344;2022-12-10T05:28:37;5.90;;;4.33;;
12482;SDS011;6306;47.134;15.344;2022-12-10T05:31:03;7.33;;;4.30;;
12482;SDS011;6306;47.134;15.344;2022-12-10T05:33:29;17.97;;;5.13;;
12482;SDS011;6306;47.134;15.344;2022-12-10T05:35:59;9.40;;;4.87;;
12482;SDS011;6306;47.134;15.344;2022-12-10T05:38:26;10.97;;;4.87;;
12482;SDS011;6306;47.134;15.344;2022-12-10T05:40:53;5.37;;;4.60;;
12482;SDS011;6306;47.134;15.344;2022-12-10T05:43:19;6.30;;;4.50;;
12482;SDS011;6306;47.134;15.344;2022-12-10T05:45:45;4.87;;;4.03;;
12482;SDS011;6306;47.134;15.344;2022-12-10T05:48:12;9.80;;;5.00;;
12482;SDS011;6306;47.134;15.344;2022-12-10T05:50:39;5.00;;;4.13;;
12482;SDS011;6306;47.134;15.344;2022-12-10T05:53:05;9.73;;;5.90;;
12482;SDS011;6306;47.134;15.344;2022-12-10T05:55:31;8.67;;;5.37;;
12482;SDS011;6306;47.134;15.344;2022-12-10T05:57:58;7.90;;;5.20;;
12482;SDS011;6306;47.134;15.344;2022-12-10T06:00:24;5.57;;;4.23;;
12482;SDS011;6306;47.134;15.344;2022-12-10T06:02:50;8.30;;;5.20;;
12482;SDS011;6306;47.134;15.344;2022-12-10T06:05:17;8.17;;;5.93;;
12482;SDS011;6306;47.134;15.344;2022-12-10T06:07:43;10.97;;;5.10;;
12482;SDS011;6306;47.134;15.344;2022-12-10T06:10:09;9.80;;;6.10;;
12482;SDS011;6306;47.134;15.344;2022-12-10T06:12:36;11.30;;;6.90;;
12482;SDS011;6306;47.134;15.344;2022-12-10T06:15:02;9.80;;;6.30;;
12482;SDS011;6306;47.134;15.344;2022-12-10T06:17:28;7.10;;;5.50;;
12482;SDS011;6306;47.134;15.344;2022-12-10T06:19:54;5.90;;;5.10;;
12482;SDS011;6306;47.134;15.344;2022-12-10T06:22:20;5.87;;;4.30;;
12482;SDS011;6306;47.134;15.344;2022-12-10T06:24:46;4.30;;;3.90;;
12482;SDS011;6306;47.134;15.344;2022-12-10T06:27:12;5.93;;;4.07;;
12482;SDS011;6306;47.134;15.344;2022-12-10T06:29:39;8.17;;;5.47;;
12482;SDS011;6306;47.134;15.344;2022-12-10T06:32:05;5.63;;;4.00;;
12482;SDS011;6306;47.134;15.344;2022-12-10T06:34:31;7.07;;;4.60;;
12482;SDS011;6306;47.134;15.344;2022-12-10T06:36:57;7.13;;;4.80;;
12482;SDS011;6306;47.134;15.344;2022-12-10T06:39:23;14.40;;;6.50;;
12482;SDS011;6306;47.134;15.344;2022-12-10T06:41:49;7.13;;;5.83;;
12482;SDS011;6306;47.134;15.344;2022-12-10T06:44:15;8.00;;;5.07;;
12482;SDS011;6306;47.134;15.344;2022-12-10T06:46:41;6.37;;;5.30;;
12482;SDS011;6306;47.134;15.344;2022-12-10T06:49:08;6.67;;;5.33;;
12482;SDS011;6306;47.134;15.344;2022-12-10T06:51:34;7.53;;;6.03;;
12482;SDS011;6306;47.134;15.344;2022-12-10T06:54:00;6.93;;;6.23;;
12482;SDS011;6306;47.134;15.344;2022-12-10T06:56:26;8.80;;;6.50;;
12482;SDS011;6306;47.134;15.344;2022-12-10T06:58:52;8.57;;;5.43;;
12482;SDS011;6306;47.134;15.344;2022-12-10T07:01:23;11.83;;;5.30;;
12482;SDS011;6306;47.134;15.344;2022-12-10T07:03:53;7.53;;;5.40;;
12482;SDS011;6306;47.134;15.344;2022-12-10T07:06:20;6.93;;;5.43;;
12482;SDS011;6306;47.134;15.344;2022-12-10T07:08:46;7.00;;;5.27;;
12482;SDS011;6306;47.134;15.344;2022-12-10T07:11:16;6.83;;;5.80;;
12482;SDS011;6306;47.134;15.344;2022-12-10T07:13:42;7.70;;;6.93;;
12482;SDS011;6306;47.134;15.344;2022-12-10T07:16:15;9.30;;;6.43;;
12482;SDS011;6306;47.134;15.344;2022-12-10T07:18:41;8.40;;;6.20;;
12482;SDS011;6306;47.134;15.344;2022-12-10T07:21:18;10.20;;;7.53;;
12482;SDS011;6306;47.134;15.344;2022-12-10T07:23:44;15.43;;;8.83;;
12482;SDS011;6306;47.134;15.344;2022-12-10T07:26:10;13.27;;;9.30;;
12482;SDS011;6306;47.134;15.344;2022-12-10T07:28:36;12.50;;;8.60;;
12482;SDS011;6306;47.134;15.344;2022-12-10T07:31:03;12.30;;;9.60;;
12482;SDS011;6306;47.134;15.344;2022-12-10T07:33:29;17.03;;;8.40;;
12482;SDS011;6306;47.134;15.344;2022-12-10T07:35:55;10.97;;;7.80;;
12482;SDS011;6306;47.134;15.344;2022-12-10T07:38:22;9.10;;;6.20;;
12482;SDS011;6306;47.134;15.344;2022-12-10T07:40:48;11.83;;;6.30;;
12482;SDS011;6306;47.134;15.344;2022-12-10T07:43:14;9.20;;;7.17;;
12482;SDS011;6306;47.134;15.344;2022-12-10T07:45:40;14.40;;;8.70;;
12482;SDS011;6306;47.134;15.344;2022-12-10T07:48:06;11.23;;;7.53;;
12482;SDS011;6306;47.134;15.344;2022-12-10T07:50:32;9.93;;;7.73;;
12482;SDS011;6306;47.134;15.344;2022-12-10T07:52:59;10.27;;;7.70;;
12482;SDS011;6306;47.134;15.344;2022-12-10T07:55:25;11.13;;;7.83;;
12482;SDS011;6306;47.134;15.344;2022-12-10T07:57:51;10.73;;;7.30;;
12482;SDS011;6306;47.134;15.344;2022-12-10T08:00:17;20.30;;;8.07;;
12482;SDS011;6306;47.134;15.344;2022-12-10T08:02:43;10.10;;;6.90;;
12482;SDS011;6306;47.134;15.344;2022-12-10T08:05:09;13.10;;;7.03;;
12482;SDS011;6306;47.134;15.344;2022-12-10T08:07:35;17.23;;;7.13;;
12482;SDS011;6306;47.134;15.344;2022-12-10T08:10:01;8.23;;;7.40;;
12482;SDS011;6306;47.134;15.344;2022-12-10T08:12:27;7.93;;;7.07;;
12482;SDS011;6306;47.134;15.344;2022-12-10T08:14:53;7.47;;;6.77;;
12482;SDS011;6306;47.134;15.344;2022-12-10T08:17:20;10.70;;;7.63;;
12482;SDS011;6306;47.134;15.344;2022-12-10T08:19:46;8.33;;;6.37;;
12482;SDS011;6306;47.134;15.344;2022-12-10T08:22:12;10.00;;;7.00;;
12482;SDS011;6306;47.134;15.344;2022-12-10T08:24:38;9.77;;;6.70;;
12482;SDS011;6306;47.134;15.344;2022-12-10T08:27:04;10.77;;;7.97;;
12482;SDS011;6306;47.134;15.344;2022-12-10T08:29:30;9.50;;;6.30;;
12482;SDS011;6306;47.134;15.344;2022-12-10T08:31:56;8.97;;;6.37;;
12482;SDS011;6306;47.134;15.344;2022-12-10T08:34:22;10.63;;;8.07;;
12482;SDS011;6306;47.134;15.344;2022-12-10T08:36:48;13.50;;;8.90;;
12482;SDS011;6306;47.134;15.344;2022-12-10T08:39:14;12.93;;;7.93;;
12482;SDS011;6306;47.134;15.344;2022-12-10T08:41:41;15.00;;;8.87;;
12482;SDS011;6306;47.134;15.344;2022-12-10T08:44:07;13.50;;;7.90;;
12482;SDS011;6306;47.134;15.344;2022-12-10T08:46:34;14.47;;;10.10;;
12482;SDS011;6306;47.134;15.344;2022-12-10T08:49:00;17.93;;;11.27;;
12482;SDS011;6306;47.134;15.344;2022-12-10T08:51:26;17.33;;;9.87;;
12482;SDS011;6306;47.134;15.344;2022-12-10T08:53:53;16.63;;;10.93;;
12482;SDS011;6306;47.134;15.344;2022-12-10T08:56:19;12.60;;;10.37;;
12482;SDS011;6306;47.134;15.344;2022-12-10T08:58:45;15.70;;;11.80;;
12482;SDS011;6306;47.134;15.344;2022-12-10T09:01:12;11.07;;;8.37;;
12482;SDS011;6306;47.134;15.344;2022-12-10T09:03:38;14.70;;;9.43;;
12482;SDS011;6306;47.134;15.344;2022-12-10T09:06:05;10.43;;;7.90;;
12482;SDS011;6306;47.134;15.344;2022-12-10T09:08:32;19.93;;;9.70;;
12482;SDS011;6306;47.134;15.344;2022-12-10T09:11:03;14.60;;;9.33;;
12482;SDS011;6306;47.134;15.344;2022-12-10T09:13:29;14.83;;;8.10;;
12482;SDS011;6306;47.134;15.344;2022-12-10T09:15:55;10.47;;;8.40;;
12482;SDS011;6306;47.134;15.344;2022-12-10T09:18:21;13.27;;;8.73;;
12482;SDS011;6306;47.134;15.344;2022-12-10T09:20:47;13.00;;;9.27;;
12482;SDS011;6306;47.134;15.344;2022-12-10T09:23:13;12.43;;;9.60;;
12482;SDS011;6306;47.134;15.344;2022-12-10T09:25:39;15.40;;;9.40;;
12482;SDS011;6306;47.134;15.344;2022-12-10T09:28:06;12.73;;;8.30;;
12482;SDS011;6306;47.134;15.344;2022-12-10T09:30:31;14.33;;;9.57;;
12482;SDS011;6306;47.134;15.344;2022-12-10T09:32:58;11.80;;;9.33;;
12482;SDS011;6306;47.134;15.344;2022-12-10T09:35:24;11.17;;;8.37;;
12482;SDS011;6306;47.134;15.344;2022-12-10T09:37:50;12.67;;;8.97;;
12482;SDS011;6306;47.134;15.344;2022-12-10T09:40:16;14.40;;;9.00;;
12482;SDS011;6306;47.134;15.344;2022-12-10T09:47:37;13.03;;;7.53;;
12482;SDS011;6306;47.134;15.344;2022-12-10T09:50:16;11.63;;;7.60;;
12482;SDS011;6306;47.134;15.344;2022-12-10T09:52:43;13.80;;;8.47;;
12482;SDS011;6306;47.134;15.344;2022-12-10T09:55:14;17.80;;;7.93;;
12482;SDS011;6306;47.134;15.344;2022-12-10T09:57:41;16.90;;;8.73;;
12482;SDS011;6306;47.134;15.344;2022-12-10T10:02:46;10.43;;;7.13;;
12482;SDS011;6306;47.134;15.344;2022-12-10T10:05:15;10.83;;;7.07;;
12482;SDS011;6306;47.134;15.344;2022-12-10T10:07:43;10.60;;;8.53;;
12482;SDS011;6306;47.134;15.344;2022-12-10T10:12:45;10.83;;;8.40;;
12482;SDS011;6306;47.134;15.344;2022-12-10T10:15:13;11.67;;;7.60;;
12482;SDS011;6306;47.134;15.344;2022-12-10T10:17:39;12.90;;;9.70;;
12482;SDS011;6306;47.134;15.344;2022-12-10T10:20:10;17.90;;;11.33;;
12482;SDS011;6306;47.134;15.344;2022-12-10T10:22:37;19.33;;;12.17;;
12482;SDS011;6306;47.134;15.344;2022-12-10T10:25:03;15.47;;;11.40;;
12482;SDS011;6306;47.134;15.344;2022-12-10T10:27:31;17.53;;;12.07;;
12482;SDS011;6306;47.134;15.344;2022-12-10T10:29:59;18.43;;;12.90;;
12482;SDS011;6306;47.134;15.344;2022-12-10T10:35:02;18.60;;;13.20;;
12482;SDS011;6306;47.134;15.344;2022-12-10T10:37:38;24.30;;;12.10;;
12482;SDS011;6306;47.134;15.344;2022-12-10T10:40:06;21.30;;;15.73;;
12482;SDS011;6306;47.134;15.344;2022-12-10T10:42:39;18.17;;;11.77;;
12482;SDS011;6306;47.134;15.344;2022-12-10T10:45:30;13.93;;;11.40;;
12482;SDS011;6306;47.134;15.344;2022-12-10T10:55:58;19.33;;;11.83;;
12482;SDS011;6306;47.134;15.344;2022-12-10T10:58:25;17.70;;;11.00;;
12482;SDS011;6306;47.134;15.344;2022-12-10T11:01:01;19.80;;;12.70;;
12482;SDS011;6306;47.134;15.344;2022-12-10T11:03:28;16.20;;;11.13;;
12482;SDS011;6306;47.134;15.344;2022-12-10T11:05:56;14.10;;;10.27;;
12482;SDS011;6306;47.134;15.344;2022-12-10T11:08:23;17.17;;;11.50;;
12482;SDS011;6306;47.134;15.344;2022-12-10T11:10:50;18.00;;;10.60;;
12482;SDS011;6306;47.134;15.344;2022-12-10T11:13:19;10.57;;;9.27;;
12482;SDS011;6306;47.134;15.344;2022-12-10T11:15:45;18.20;;;10.60;;
12482;SDS011;6306;47.134;15.344;2022-12-10T11:20:55;15.17;;;9.70;;
12482;SDS011;6306;47.134;15.344;2022-12-10T11:23:22;18.00;;;11.23;;
12482;SDS011;6306;47.134;15.344;2022-12-10T11:30:58;16.83;;;11.23;;
12482;SDS011;6306;47.134;15.344;2022-12-10T11:33:33;21.57;;;12.63;;
12482;SDS011;6306;47.134;15.344;2022-12-10T11:38:32;13.53;;;10.30;;
12482;SDS011;6306;47.134;15.344;2022-12-10T11:41:16;7.80;;;6.40;;
12482;SDS011;6306;47.134;15.344;2022-12-10T11:46:38;6.83;;;5.87;;
12482;SDS011;6306;47.134;15.344;2022-12-10T11:49:16;8.90;;;5.30;;
12482;SDS011;6306;47.134;15.344;2022-12-10T11:51:57;7.10;;;6.03;;
12482;SDS011;6306;47.134;15.344;2022-12-10T11:59:43;9.80;;;4.47;;
12482;SDS011;6306;47.134;15.344;2022-12-10T12:04:43;4.37;;;3.87;;
12482;SDS011;6306;47.134;15.344;2022-12-10T12:10:12;7.00;;;4.13;;
12482;SDS011;6306;47.134;15.344;2022-12-10T12:12:42;5.00;;;4.50;;
12482;SDS011;6306;47.134;15.344;2022-12-10T12:17:43;5.97;;;4.67;;
12482;SDS011;6306;47.134;15.344;2022-12-10T12:20:17;5.67;;;4.00;;
12482;SDS011;6306;47.134;15.344;2022-12-10T12:22:45;5.03;;;4.53;;
12482;SDS011;6306;47.134;15.344;2022-12-10T12:25:23;4.50;;;4.03;;
12482;SDS011;6306;47.134;15.344;2022-12-10T12:27:53;4.07;;;3.33;;
12482;SDS011;6306;47.134;15.344;2022-12-10T12:30:22;4.13;;;3.63;;
12482;SDS011;6306;47.134;15.344;2022-12-10T12:32:57;5.03;;;3.80;;
12482;SDS011;6306;47.134;15.344;2022-12-10T12:35:36;8.80;;;5.07;;
12482;SDS011;6306;47.134;15.344;2022-12-10T12:41:04;4.90;;;4.40;;
12482;SDS011;6306;47.134;15.344;2022-12-10T12:46:00;7.53;;;4.00;;
12482;SDS011;6306;47.134;15.344;2022-12-10T12:48:48;8.93;;;4.30;;
12482;SDS011;6306;47.134;15.344;2022-12-10T12:51:26;3.90;;;3.57;;
12482;SDS011;6306;47.134;15.344;2022-12-10T12:53:54;4.60;;;3.90;;
12482;SDS011;6306;47.134;15.344;2022-12-10T12:56:25;6.13;;;4.43;;
12482;SDS011;6306;47.134;15.344;2022-12-10T13:01:34;3.60;;;3.30;;
12482;SDS011;6306;47.134;15.344;2022-12-10T13:04:00;3.33;;;3.10;;
12482;SDS011;6306;47.134;15.344;2022-12-10T13:06:32;3.70;;;3.20;;
12482;SDS011;6306;47.134;15.344;2022-12-10T13:11:43;5.73;;;4.00;;
12482;SDS011;6306;47.134;15.344;2022-12-10T13:22:40;7.27;;;3.40;;
12482;SDS011;6306;47.134;15.344;2022-12-10T13:29:55;5.67;;;4.60;;
12482;SDS011;6306;47.134;15.344;2022-12-10T13:37:36;6.77;;;3.80;;
12482;SDS011;6306;47.134;15.344;2022-12-10T13:42:35;4.50;;;3.80;;
12482;SDS011;6306;47.134;15.344;2022-12-10T13:47:51;5.00;;;3.60;;
12482;SDS011;6306;47.134;15.344;2022-12-10T13:50:18;8.53;;;3.63;;
12482;SDS011;6306;47.134;15.344;2022-12-10T13:55:20;4.70;;;3.10;;
12482;SDS011;6306;47.134;15.344;2022-12-10T14:00:16;4.13;;;3.47;;
12482;SDS011;6306;47.134;15.344;2022-12-10T14:07:57;2.10;;;1.90;;
12482;SDS011;6306;47.134;15.344;2022-12-10T14:10:27;2.90;;;2.23;;
12482;SDS011;6306;47.134;15.344;2022-12-10T14:12:55;2.40;;;2.20;;
12482;SDS011;6306;47.134;15.344;2022-12-10T14:15:25;2.23;;;2.03;;
12482;SDS011;6306;47.134;15.344;2022-12-10T14:17:53;1.87;;;1.77;;
12482;SDS011;6306;47.134;15.344;2022-12-10T14:20:21;1.90;;;1.80;;
12482;SDS011;6306;47.134;15.344;2022-12-10T14:22:51;3.90;;;2.27;;
12482;SDS011;6306;47.134;15.344;2022-12-10T14:25:19;2.80;;;2.03;;
12482;SDS011;6306;47.134;15.344;2022-12-10T14:27:47;1.73;;;1.50;;
12482;SDS011;6306;47.134;15.344;2022-12-10T14:30:17;2.53;;;2.23;;
12482;SDS011;6306;47.134;15.344;2022-12-10T14:32:44;1.57;;;1.43;;
12482;SDS011;6306;47.134;15.344;2022-12-10T14:35:13;1.60;;;1.50;;
12482;SDS011;6306;47.134;15.344;2022-12-10T14:37:40;1.77;;;1.57;;
12482;SDS011;6306;47.134;15.344;2022-12-10T14:40:07;1.83;;;1.70;;
12482;SDS011;6306;47.134;15.344;2022-12-10T14:42:34;2.20;;;1.90;;
12482;SDS011;6306;47.134;15.344;2022-12-10T14:45:02;2.53;;;1.93;;
12482;SDS011;6306;47.134;15.344;2022-12-10T14:47:33;2.70;;;1.60;;
12482;SDS011;6306;47.134;15.344;2022-12-10T14:50:01;1.80;;;1.70;;
12482;SDS011;6306;47.134;15.344;2022-12-10T14:52:32;2.60;;;2.13;;
12482;SDS011;6306;47.134;15.344;2022-12-10T14:55:00;3.53;;;2.67;;
12482;SDS011;6306;47.134;15.344;2022-12-10T14:57:29;3.17;;;2.67;;
12482;SDS011;6306;47.134;15.344;2022-12-10T15:02:24;3.83;;;2.70;;
12482;SDS011;6306;47.134;15.344;2022-12-10T15:04:51;4.20;;;3.50;;
12482;SDS011;6306;47.134;15.344;2022-12-10T15:07:18;4.80;;;2.73;;
12482;SDS011;6306;47.134;15.344;2022-12-10T15:09:46;2.60;;;2.40;;
12482;SDS011;6306;47.134;15.344;2022-12-10T15:14:59;3.93;;;3.07;;
12482;SDS011;6306;47.134;15.344;2022-12-10T15:17:45;3.60;;;3.17;;
12482;SDS011;6306;47.134;15.344;2022-12-10T15:20:19;5.10;;;3.53;;
12482;SDS011;6306;47.134;15.344;2022-12-10T15:22:46;4.87;;;3.60;;
12482;SDS011;6306;47.134;15.344;2022-12-10T15:25:25;4.00;;;3.07;;
12482;SDS011;6306;47.134;15.344;2022-12-10T15:27:53;3.27;;;2.17;;
12482;SDS011;6306;47.134;15.344;2022-12-10T15:30:24;4.47;;;2.27;;
12482;SDS011;6306;47.134;15.344;2022-12-10T15:32:50;2.90;;;2.07;;
12482;SDS011;6306;47.134;15.344;2022-12-10T15:35:16;3.10;;;2.57;;
12482;SDS011;6306;47.134;15.344;2022-12-10T15:37:43;4.73;;;3.90;;
12482;SDS011;6306;47.134;15.344;2022-12-10T15:43:23;4.93;;;3.07;;
12482;SDS011;6306;47.134;15.344;2022-12-10T15:45:50;4.10;;;2.50;;
12482;SDS011;6306;47.134;15.344;2022-12-10T15:48:16;1.83;;;1.70;;
12482;SDS011;6306;47.134;15.344;2022-12-10T15:50:43;3.47;;;2.77;;
12482;SDS011;6306;47.134;15.344;2022-12-10T15:53:14;3.60;;;2.40;;
12482;SDS011;6306;47.134;15.344;2022-12-10T15:55:40;2.40;;;2.20;;
12482;SDS011;6306;47.134;15.344;2022-12-10T15:58:12;1.90;;;1.80;;
12482;SDS011;6306;47.134;15.344;2022-12-10T16:00:39;2.47;;;2.20;;
12482;SDS011;6306;47.134;15.344;2022-12-10T16:03:12;2.37;;;2.17;;
12482;SDS011;6306;47.134;15.344;2022-12-10T16:05:39;2.80;;;1.80;;
12482;SDS011;6306;47.134;15.344;2022-12-10T16:10:44;5.30;;;1.67;;
12482;SDS011;6306;47.134;15.344;2022-12-10T16:13:20;3.73;;;2.83;;
12482;SDS011;6306;47.134;15.344;2022-12-10T16:15:54;1.47;;;1.37;;
12482;SDS011;6306;47.134;15.344;2022-12-10T16:18:22;1.50;;;1.50;;
12482;SDS011;6306;47.134;15.344;2022-12-10T16:20:49;2.07;;;1.87;;
12482;SDS011;6306;47.134;15.344;2022-12-10T16:23:16;2.73;;;2.00;;
12482;SDS011;6306;47.134;15.344;2022-12-10T16:25:43;1.60;;;1.50;;
12482;SDS011;6306;47.134;15.344;2022-12-10T16:28:17;1.87;;;1.73;;
12482;SDS011;6306;47.134;15.344;2022-12-10T16:30:45;2.30;;;1.90;;
12482;SDS011;6306;47.134;15.344;2022-12-10T16:33:17;3.80;;;1.93;;
12482;SDS011;6306;47.134;15.344;2022-12-10T16:35:43;1.53;;;1.43;;
12482;SDS011;6306;47.134;15.344;2022-12-10T16:38:09;1.87;;;1.77;;
12482;SDS011;6306;47.134;15.344;2022-12-10T16:40:37;2.03;;;1.70;;
12482;SDS011;6306;47.134;15.344;2022-12-10T16:43:04;1.90;;;1.70;;
12482;SDS011;6306;47.134;15.344;2022-12-10T16:45:33;2.00;;;1.70;;
12482;SDS011;6306;47.134;15.344;2022-12-10T16:48:00;6.00;;;2.50;;